sensor_id;sensor_type;location;lat;lon;timestamp;pressure;altitude;pressure_sealevel;temperature;humidity
13367;BME280;6752;52.612;13.630;2022-10-15T00:02:02;100238.32;;;13.64;100.00
13367;BME280;6752;52.612;13.630;2022-10-15T00:07:04;100227.37;;;13.64;100.00
13367;BME280;6752;52.612;13.630;2022-10-15T00:12:06;100224.56;;;13.59;100.00
13367;BME280;6752;52.612;13.630;2022-10-15T00:17:09;100214.66;;;13.66;100.00
13367;BME280;6752;52.612;13.630;2022-10-15T00:22:11;100203.17;;;13.66;100.00
13367;BME280;6752;52.612;13.630;2022-10-15T00:27:13;100207.47;;;13.71;100.00
13367;BME280;6752;52.612;13.630;2022-10-15T00:32:16;100211.51;;;13.66;100.00
13367;BME280;6752;52.612;13.630;2022-10-15T00:37:19;100208.62;;;13.47;100.00
13367;BME280;6752;52.612;13.630;2022-10-15T00:42:22;100202.75;;;13.55;100.00
13367;BME280;6752;52.612;13.630;2022-10-15T00:58:04;100186.58;;;13.54;100.00
13367;BME280;6752;52.612;13.630;2022-10-15T01:03:04;100182.59;;;13.45;100.00
13367;BME280;6752;52.612;13.630;2022-10-15T01:08:09;100173.84;;;13.54;100.00
13367;BME280;6752;52.612;13.630;2022-10-15T01:18:45;100170.30;;;13.56;100.00
13367;BME280;6752;52.612;13.630;2022-10-15T01:24:09;100162.76;;;13.54;100.00
13367;BME280;6752;52.612;13.630;2022-10-15T01:29:46;100158.52;;;13.47;100.00
13367;BME280;6752;52.612;13.630;2022-10-15T01:40:45;100146.75;;;13.55;100.00
13367;BME280;6752;52.612;13.630;2022-10-15T01:45:11;100148.66;;;13.54;100.00
13367;BME280;6752;52.612;13.630;2022-10-15T01:50:12;100144.61;;;13.59;100.00
13367;BME280;6752;52.612;13.630;2022-10-15T01:55:19;100139.20;;;13.53;100.00
13367;BME280;6752;52.612;13.630;2022-10-15T02:00:22;100128.02;;;13.57;100.00
13367;BME280;6752;52.612;13.630;2022-10-15T02:06:09;100128.79;;;13.53;100.00
13367;BME280;6752;52.612;13.630;2022-10-15T02:10:56;100121.34;;;13.59;100.00
13367;BME280;6752;52.612;13.630;2022-10-15T02:16:13;100124.20;;;13.58;100.00
13367;BME280;6752;52.612;13.630;2022-10-15T02:21:16;100122.86;;;13.61;100.00
13367;BME280;6752;52.612;13.630;2022-10-15T02:26:17;100103.05;;;13.65;100.00
13367;BME280;6752;52.612;13.630;2022-10-15T02:31:19;100097.69;;;13.72;100.00
13367;BME280;6752;52.612;13.630;2022-10-15T02:36:24;100095.17;;;13.71;100.00
13367;BME280;6752;52.612;13.630;2022-10-15T02:41:27;100097.09;;;13.70;100.00
13367;BME280;6752;52.612;13.630;2022-10-15T02:46:32;100100.34;;;13.67;100.00
13367;BME280;6752;52.612;13.630;2022-10-15T02:51:35;100099.64;;;13.66;100.00
13367;BME280;6752;52.612;13.630;2022-10-15T02:56:46;100097.91;;;13.71;100.00
13367;BME280;6752;52.612;13.630;2022-10-15T03:01:48;100088.43;;;13.67;100.00
13367;BME280;6752;52.612;13.630;2022-10-15T03:06:50;100092.91;;;13.74;100.00
13367;BME280;6752;52.612;13.630;2022-10-15T03:11:53;100088.19;;;13.80;100.00
13367;BME280;6752;52.612;13.630;2022-10-15T03:16:55;100079.95;;;13.69;100.00
13367;BME280;6752;52.612;13.630;2022-10-15T03:21:58;100079.84;;;13.81;100.00
13367;BME280;6752;52.612;13.630;2022-10-15T03:27:00;100081.27;;;13.64;100.00
13367;BME280;6752;52.612;13.630;2022-10-15T03:32:02;100080.73;;;13.75;100.00
13367;BME280;6752;52.612;13.630;2022-10-15T03:37:05;100077.48;;;13.67;100.00
13367;BME280;6752;52.612;13.630;2022-10-15T03:42:07;100066.66;;;13.78;100.00
13367;BME280;6752;52.612;13.630;2022-10-15T03:47:09;100060.09;;;13.79;100.00
13367;BME280;6752;52.612;13.630;2022-10-15T03:52:12;100056.79;;;13.77;100.00
13367;BME280;6752;52.612;13.630;2022-10-15T03:57:14;100065.59;;;13.70;100.00
13367;BME280;6752;52.612;13.630;2022-10-15T04:02:17;100062.50;;;13.73;100.00
13367;BME280;6752;52.612;13.630;2022-10-15T04:07:20;100068.00;;;13.64;100.00
13367;BME280;6752;52.612;13.630;2022-10-15T04:12:21;100066.63;;;13.64;100.00
13367;BME280;6752;52.612;13.630;2022-10-15T04:17:24;100063.25;;;13.79;100.00
13367;BME280;6752;52.612;13.630;2022-10-15T04:22:26;100065.06;;;13.82;100.00
13367;BME280;6752;52.612;13.630;2022-10-15T04:27:28;100075.96;;;13.77;100.00
13367;BME280;6752;52.612;13.630;2022-10-15T04:32:30;100079.73;;;13.84;100.00
13367;BME280;6752;52.612;13.630;2022-10-15T04:37:32;100070.66;;;13.70;100.00
13367;BME280;6752;52.612;13.630;2022-10-15T04:42:35;100077.46;;;13.76;100.00
13367;BME280;6752;52.612;13.630;2022-10-15T04:47:40;100074.16;;;13.74;100.00
13367;BME280;6752;52.612;13.630;2022-10-15T04:52:42;100076.78;;;13.91;100.00
13367;BME280;6752;52.612;13.630;2022-10-15T04:57:44;100072.68;;;13.77;100.00
13367;BME280;6752;52.612;13.630;2022-10-15T05:02:47;100076.06;;;13.87;100.00
13367;BME280;6752;52.612;13.630;2022-10-15T05:07:49;100079.78;;;13.89;100.00
13367;BME280;6752;52.612;13.630;2022-10-15T05:12:51;100079.09;;;13.99;100.00
13367;BME280;6752;52.612;13.630;2022-10-15T05:17:54;100079.01;;;13.80;100.00
13367;BME280;6752;52.612;13.630;2022-10-15T05:22:56;100077.63;;;14.05;100.00
13367;BME280;6752;52.612;13.630;2022-10-15T05:27:59;100079.85;;;14.08;100.00
13367;BME280;6752;52.612;13.630;2022-10-15T05:33:01;100076.68;;;13.94;100.00
13367;BME280;6752;52.612;13.630;2022-10-15T05:38:03;100083.68;;;14.07;100.00
13367;BME280;6752;52.612;13.630;2022-10-15T05:43:09;100092.81;;;14.17;100.00
13367;BME280;6752;52.612;13.630;2022-10-15T05:48:14;100097.68;;;14.21;100.00
13367;BME280;6752;52.612;13.630;2022-10-15T05:53:16;100098.41;;;14.14;100.00
13367;BME280;6752;52.612;13.630;2022-10-15T05:58:21;100094.60;;;14.18;100.00
13367;BME280;6752;52.612;13.630;2022-10-15T06:03:23;100100.34;;;14.27;100.00
13367;BME280;6752;52.612;13.630;2022-10-15T06:08:26;100102.81;;;14.28;100.00
13367;BME280;6752;52.612;13.630;2022-10-15T06:13:28;100108.77;;;14.20;100.00
13367;BME280;6752;52.612;13.630;2022-10-15T06:18:31;100116.41;;;14.32;100.00
13367;BME280;6752;52.612;13.630;2022-10-15T06:23:33;100116.61;;;14.39;100.00
13367;BME280;6752;52.612;13.630;2022-10-15T06:28:36;100124.39;;;14.20;100.00
13367;BME280;6752;52.612;13.630;2022-10-15T06:33:56;100117.87;;;14.42;100.00
13367;BME280;6752;52.612;13.630;2022-10-15T06:39:02;100126.33;;;14.46;100.00
13367;BME280;6752;52.612;13.630;2022-10-15T06:44:07;100127.91;;;14.56;100.00
13367;BME280;6752;52.612;13.630;2022-10-15T06:49:10;100136.95;;;14.67;100.00
13367;BME280;6752;52.612;13.630;2022-10-15T06:54:15;100142.08;;;14.74;100.00
13367;BME280;6752;52.612;13.630;2022-10-15T06:59:21;100141.23;;;14.71;100.00
13367;BME280;6752;52.612;13.630;2022-10-15T07:04:23;100146.48;;;14.92;100.00
13367;BME280;6752;52.612;13.630;2022-10-15T07:09:26;100151.19;;;15.15;100.00
13367;BME280;6752;52.612;13.630;2022-10-15T07:14:31;100147.91;;;15.39;100.00
13367;BME280;6752;52.612;13.630;2022-10-15T07:19:33;100151.68;;;15.51;100.00
13367;BME280;6752;52.612;13.630;2022-10-15T07:24:38;100165.14;;;15.69;100.00
13367;BME280;6752;52.612;13.630;2022-10-15T07:29:43;100174.42;;;15.42;100.00
13367;BME280;6752;52.612;13.630;2022-10-15T07:34:46;100169.40;;;15.52;100.00
13367;BME280;6752;52.612;13.630;2022-10-15T07:39:48;100172.85;;;15.74;100.00
13367;BME280;6752;52.612;13.630;2022-10-15T07:44:53;100173.89;;;15.87;100.00
13367;BME280;6752;52.612;13.630;2022-10-15T07:49:56;100176.69;;;15.71;100.00
13367;BME280;6752;52.612;13.630;2022-10-15T07:55:00;100173.81;;;15.74;100.00
13367;BME280;6752;52.612;13.630;2022-10-15T08:00:03;100162.72;;;16.14;100.00
13367;BME280;6752;52.612;13.630;2022-10-15T08:05:08;100139.19;;;17.27;100.00
13367;BME280;6752;52.612;13.630;2022-10-15T08:10:10;100140.35;;;17.56;100.00
13367;BME280;6752;52.612;13.630;2022-10-15T08:15:18;100150.66;;;17.62;100.00
13367;BME280;6752;52.612;13.630;2022-10-15T08:20:17;100139.45;;;18.62;100.00
13367;BME280;6752;52.612;13.630;2022-10-15T08:25:19;100152.27;;;19.45;100.00
13367;BME280;6752;52.612;13.630;2022-10-15T08:30:22;100158.48;;;19.73;100.00
13367;BME280;6752;52.612;13.630;2022-10-15T08:35:24;100168.33;;;19.82;100.00
13367;BME280;6752;52.612;13.630;2022-10-15T08:40:27;100168.25;;;19.34;100.00
13367;BME280;6752;52.612;13.630;2022-10-15T08:45:38;100178.41;;;20.18;100.00
13367;BME280;6752;52.612;13.630;2022-10-15T08:51:22;100176.99;;;19.46;100.00
13367;BME280;6752;52.612;13.630;2022-10-15T08:55:58;100181.61;;;18.90;100.00
13367;BME280;6752;52.612;13.630;2022-10-15T09:01:02;100182.34;;;19.66;100.00
13367;BME280;6752;52.612;13.630;2022-10-15T09:06:12;100178.91;;;19.62;100.00
13367;BME280;6752;52.612;13.630;2022-10-15T09:16:26;100186.89;;;20.02;100.00
13367;BME280;6752;52.612;13.630;2022-10-15T09:21:24;100184.16;;;19.32;100.00
13367;BME280;6752;52.612;13.630;2022-10-15T09:26:31;100187.62;;;19.31;100.00
13367;BME280;6752;52.612;13.630;2022-10-15T09:31:40;100196.38;;;19.26;100.00
13367;BME280;6752;52.612;13.630;2022-10-15T09:36:41;100188.33;;;19.30;100.00
13367;BME280;6752;52.612;13.630;2022-10-15T09:42:17;100202.19;;;19.83;100.00
13367;BME280;6752;52.612;13.630;2022-10-15T09:47:28;100198.48;;;20.04;99.80
13367;BME280;6752;52.612;13.630;2022-10-15T09:58:02;100184.77;;;21.61;90.58
13367;BME280;6752;52.612;13.630;2022-10-15T10:03:09;100193.36;;;21.46;89.19
13367;BME280;6752;52.612;13.630;2022-10-15T10:08:19;100204.02;;;21.04;87.73
13367;BME280;6752;52.612;13.630;2022-10-15T10:13:30;100198.92;;;20.94;88.11
13367;BME280;6752;52.612;13.630;2022-10-15T10:18:30;100193.97;;;21.36;84.76
13367;BME280;6752;52.612;13.630;2022-10-15T10:23:37;100202.98;;;22.36;85.75
13367;BME280;6752;52.612;13.630;2022-10-15T10:28:50;100205.19;;;21.95;85.44
13367;BME280;6752;52.612;13.630;2022-10-15T10:33:51;100201.98;;;21.37;86.98
13367;BME280;6752;52.612;13.630;2022-10-15T10:44:20;100209.64;;;21.43;87.33
13367;BME280;6752;52.612;13.630;2022-10-15T10:49:34;100194.69;;;22.08;85.08
13367;BME280;6752;52.612;13.630;2022-10-15T10:54:39;100200.81;;;21.48;86.18
13367;BME280;6752;52.612;13.630;2022-10-15T10:59:49;100196.55;;;21.46;85.26
13367;BME280;6752;52.612;13.630;2022-10-15T11:04:49;100200.17;;;20.86;87.65
13367;BME280;6752;52.612;13.630;2022-10-15T11:09:58;100202.33;;;20.51;91.25
13367;BME280;6752;52.612;13.630;2022-10-15T11:20:43;100204.03;;;20.68;88.49
13367;BME280;6752;52.612;13.630;2022-10-15T11:25:46;100208.41;;;20.63;91.35
13367;BME280;6752;52.612;13.630;2022-10-15T11:31:37;100204.39;;;20.71;89.66
13367;BME280;6752;52.612;13.630;2022-10-15T11:41:31;100200.39;;;20.71;91.16
13367;BME280;6752;52.612;13.630;2022-10-15T11:46:41;100202.68;;;20.23;92.29
13367;BME280;6752;52.612;13.630;2022-10-15T11:52:06;100199.00;;;20.42;91.26
13367;BME280;6752;52.612;13.630;2022-10-15T11:57:07;100195.52;;;21.49;86.15
13367;BME280;6752;52.612;13.630;2022-10-15T12:07:47;100174.25;;;21.95;84.36
13367;BME280;6752;52.612;13.630;2022-10-15T12:12:53;100173.63;;;21.64;86.57
13367;BME280;6752;52.612;13.630;2022-10-15T12:23:18;100181.44;;;21.96;86.71
13367;BME280;6752;52.612;13.630;2022-10-15T12:38:34;100196.47;;;20.65;89.91
13367;BME280;6752;52.612;13.630;2022-10-15T12:43:40;100182.94;;;21.05;88.93
13367;BME280;6752;52.612;13.630;2022-10-15T12:48:44;100180.47;;;21.04;89.37
13367;BME280;6752;52.612;13.630;2022-10-15T12:53:47;100182.94;;;21.05;88.39
13367;BME280;6752;52.612;13.630;2022-10-15T12:58:52;100191.27;;;20.70;88.08
13367;BME280;6752;52.612;13.630;2022-10-15T13:03:54;100197.07;;;20.28;89.62
13367;BME280;6752;52.612;13.630;2022-10-15T13:09:16;100188.26;;;20.57;91.61
13367;BME280;6752;52.612;13.630;2022-10-15T13:19:18;100179.00;;;20.36;93.64
13367;BME280;6752;52.612;13.630;2022-10-15T13:24:20;100180.31;;;20.29;94.84
13367;BME280;6752;52.612;13.630;2022-10-15T13:29:23;100181.07;;;19.80;96.44
13367;BME280;6752;52.612;13.630;2022-10-15T13:34:27;100174.52;;;19.59;96.22
13367;BME280;6752;52.612;13.630;2022-10-15T13:39:32;100178.14;;;19.42;99.17
13367;BME280;6752;52.612;13.630;2022-10-15T13:44:34;100181.72;;;19.72;100.00
13367;BME280;6752;52.612;13.630;2022-10-15T13:49:37;100182.49;;;19.63;99.98
13367;BME280;6752;52.612;13.630;2022-10-15T13:54:43;100177.44;;;20.06;97.09
13367;BME280;6752;52.612;13.630;2022-10-15T13:59:44;100183.36;;;20.51;96.08
13367;BME280;6752;52.612;13.630;2022-10-15T14:04:49;100184.28;;;20.14;95.54
13367;BME280;6752;52.612;13.630;2022-10-15T14:09:52;100181.95;;;20.45;93.67
13367;BME280;6752;52.612;13.630;2022-10-15T14:14:57;100188.58;;;19.77;94.14
13367;BME280;6752;52.612;13.630;2022-10-15T14:20:03;100175.81;;;19.93;94.32
13367;BME280;6752;52.612;13.630;2022-10-15T14:25:08;100174.45;;;19.23;97.37
13367;BME280;6752;52.612;13.630;2022-10-15T14:30:17;100175.93;;;19.39;98.95
13367;BME280;6752;52.612;13.630;2022-10-15T14:40:28;100191.16;;;19.37;98.93
13367;BME280;6752;52.612;13.630;2022-10-15T14:45:52;100187.30;;;19.06;100.00
13367;BME280;6752;52.612;13.630;2022-10-15T14:50:44;100197.32;;;18.78;100.00
13367;BME280;6752;52.612;13.630;2022-10-15T14:55:50;100198.58;;;18.76;100.00
13367;BME280;6752;52.612;13.630;2022-10-15T15:00:58;100202.77;;;18.71;100.00
13367;BME280;6752;52.612;13.630;2022-10-15T15:05:57;100197.19;;;18.51;100.00
13367;BME280;6752;52.612;13.630;2022-10-15T15:11:00;100204.92;;;18.76;100.00
13367;BME280;6752;52.612;13.630;2022-10-15T15:16:04;100206.28;;;18.98;100.00
13367;BME280;6752;52.612;13.630;2022-10-15T15:21:06;100204.52;;;18.76;100.00
13367;BME280;6752;52.612;13.630;2022-10-15T15:26:11;100205.89;;;18.49;100.00
13367;BME280;6752;52.612;13.630;2022-10-15T15:31:15;100208.25;;;18.49;100.00
13367;BME280;6752;52.612;13.630;2022-10-15T15:36:19;100212.23;;;18.25;100.00
13367;BME280;6752;52.612;13.630;2022-10-15T15:41:22;100222.56;;;18.21;100.00
13367;BME280;6752;52.612;13.630;2022-10-15T15:46:27;100216.53;;;18.14;100.00
13367;BME280;6752;52.612;13.630;2022-10-15T15:51:29;100215.97;;;18.17;100.00
13367;BME280;6752;52.612;13.630;2022-10-15T15:56:34;100216.48;;;17.89;100.00
13367;BME280;6752;52.612;13.630;2022-10-15T16:01:36;100217.04;;;17.89;100.00
13367;BME280;6752;52.612;13.630;2022-10-15T16:06:41;100223.78;;;17.89;100.00
13367;BME280;6752;52.612;13.630;2022-10-15T16:11:44;100229.48;;;17.81;100.00
13367;BME280;6752;52.612;13.630;2022-10-15T16:16:46;100230.73;;;17.69;100.00
13367;BME280;6752;52.612;13.630;2022-10-15T16:21:49;100241.06;;;17.45;100.00
13367;BME280;6752;52.612;13.630;2022-10-15T16:26:51;100240.94;;;17.41;100.00
13367;BME280;6752;52.612;13.630;2022-10-15T16:31:53;100245.22;;;17.27;100.00
13367;BME280;6752;52.612;13.630;2022-10-15T16:36:59;100245.35;;;17.06;100.00
13367;BME280;6752;52.612;13.630;2022-10-15T16:41:58;100248.34;;;16.99;100.00
13367;BME280;6752;52.612;13.630;2022-10-15T16:47:03;100254.78;;;16.76;100.00
13367;BME280;6752;52.612;13.630;2022-10-15T16:52:05;100250.47;;;16.64;100.00
13367;BME280;6752;52.612;13.630;2022-10-15T16:57:08;100257.57;;;16.53;100.00
13367;BME280;6752;52.612;13.630;2022-10-15T17:02:10;100273.23;;;16.45;100.00
13367;BME280;6752;52.612;13.630;2022-10-15T17:07:13;100272.94;;;16.38;100.00
13367;BME280;6752;52.612;13.630;2022-10-15T17:12:15;100289.02;;;16.33;100.00
13367;BME280;6752;52.612;13.630;2022-10-15T17:17:17;100292.66;;;16.23;100.00
13367;BME280;6752;52.612;13.630;2022-10-15T17:22:20;100300.89;;;16.18;100.00
13367;BME280;6752;52.612;13.630;2022-10-15T17:27:22;100299.92;;;16.15;100.00
13367;BME280;6752;52.612;13.630;2022-10-15T17:32:27;100300.20;;;15.93;100.00
13367;BME280;6752;52.612;13.630;2022-10-15T17:37:29;100311.27;;;16.08;100.00
13367;BME280;6752;52.612;13.630;2022-10-15T17:42:31;100312.16;;;15.92;100.00
13367;BME280;6752;52.612;13.630;2022-10-15T17:47:34;100311.49;;;15.78;100.00
13367;BME280;6752;52.612;13.630;2022-10-15T17:52:36;100311.84;;;15.86;100.00
13367;BME280;6752;52.612;13.630;2022-10-15T17:57:39;100308.36;;;15.83;100.00
13367;BME280;6752;52.612;13.630;2022-10-15T18:02:41;100304.22;;;15.80;100.00
13367;BME280;6752;52.612;13.630;2022-10-15T18:07:44;100305.56;;;15.75;100.00
13367;BME280;6752;52.612;13.630;2022-10-15T18:12:46;100311.03;;;15.70;100.00
13367;BME280;6752;52.612;13.630;2022-10-15T18:17:48;100310.90;;;15.71;100.00
13367;BME280;6752;52.612;13.630;2022-10-15T18:22:51;100310.89;;;15.57;100.00
13367;BME280;6752;52.612;13.630;2022-10-15T18:27:53;100306.40;;;15.59;100.00
13367;BME280;6752;52.612;13.630;2022-10-15T18:32:56;100312.75;;;15.49;100.00
13367;BME280;6752;52.612;13.630;2022-10-15T18:37:58;100315.83;;;15.58;100.00
13367;BME280;6752;52.612;13.630;2022-10-15T18:43:01;100319.05;;;15.60;100.00
13367;BME280;6752;52.612;13.630;2022-10-15T18:48:03;100318.73;;;15.41;100.00
13367;BME280;6752;52.612;13.630;2022-10-15T18:53:06;100338.48;;;15.38;100.00
13367;BME280;6752;52.612;13.630;2022-10-15T18:58:08;100337.47;;;15.35;100.00
13367;BME280;6752;52.612;13.630;2022-10-15T19:03:10;100340.09;;;15.36;100.00
13367;BME280;6752;52.612;13.630;2022-10-15T19:08:12;100335.95;;;15.18;100.00
13367;BME280;6752;52.612;13.630;2022-10-15T19:13:14;100334.04;;;15.18;100.00
13367;BME280;6752;52.612;13.630;2022-10-15T19:18:16;100328.80;;;15.03;100.00
13367;BME280;6752;52.612;13.630;2022-10-15T19:23:19;100329.00;;;15.10;100.00
13367;BME280;6752;52.612;13.630;2022-10-15T19:28:21;100326.77;;;15.07;100.00
13367;BME280;6752;52.612;13.630;2022-10-15T19:33:24;100335.64;;;15.01;100.00
13367;BME280;6752;52.612;13.630;2022-10-15T19:38:26;100338.84;;;15.06;100.00
13367;BME280;6752;52.612;13.630;2022-10-15T19:43:28;100332.52;;;15.05;100.00
13367;BME280;6752;52.612;13.630;2022-10-15T19:48:30;100342.45;;;15.12;100.00
13367;BME280;6752;52.612;13.630;2022-10-15T19:53:32;100341.25;;;15.27;100.00
13367;BME280;6752;52.612;13.630;2022-10-15T19:58:34;100338.11;;;15.29;100.00
13367;BME280;6752;52.612;13.630;2022-10-15T20:03:37;100335.13;;;15.33;100.00
13367;BME280;6752;52.612;13.630;2022-10-15T20:08:39;100336.72;;;15.40;100.00
13367;BME280;6752;52.612;13.630;2022-10-15T20:13:41;100340.61;;;15.33;100.00
13367;BME280;6752;52.612;13.630;2022-10-15T20:18:43;100359.59;;;15.37;100.00
13367;BME280;6752;52.612;13.630;2022-10-15T20:23:46;100364.22;;;15.45;100.00
13367;BME280;6752;52.612;13.630;2022-10-15T20:28:48;100379.74;;;15.59;100.00
13367;BME280;6752;52.612;13.630;2022-10-15T20:33:51;100368.28;;;15.64;100.00
13367;BME280;6752;52.612;13.630;2022-10-15T20:38:53;100367.66;;;15.60;100.00
13367;BME280;6752;52.612;13.630;2022-10-15T20:43:55;100367.30;;;15.62;100.00
13367;BME280;6752;52.612;13.630;2022-10-15T20:49:04;100371.48;;;15.70;100.00
13367;BME280;6752;52.612;13.630;2022-10-15T20:54:07;100388.79;;;15.70;100.00
13367;BME280;6752;52.612;13.630;2022-10-15T20:59:09;100388.28;;;15.76;100.00
13367;BME280;6752;52.612;13.630;2022-10-15T21:04:14;100391.73;;;15.77;100.00
13367;BME280;6752;52.612;13.630;2022-10-15T21:09:16;100395.09;;;15.68;100.00
13367;BME280;6752;52.612;13.630;2022-10-15T21:14:21;100406.95;;;15.74;100.00
13367;BME280;6752;52.612;13.630;2022-10-15T21:19:24;100408.02;;;15.70;100.00
13367;BME280;6752;52.612;13.630;2022-10-15T21:24:29;100412.39;;;15.66;100.00
13367;BME280;6752;52.612;13.630;2022-10-15T21:29:31;100418.28;;;15.64;100.00
13367;BME280;6752;52.612;13.630;2022-10-15T21:34:36;100398.91;;;15.65;100.00
13367;BME280;6752;52.612;13.630;2022-10-15T21:39:40;100407.91;;;15.47;100.00
13367;BME280;6752;52.612;13.630;2022-10-15T21:44:45;100404.61;;;15.47;100.00
13367;BME280;6752;52.612;13.630;2022-10-15T21:49:47;100398.69;;;15.44;100.00
13367;BME280;6752;52.612;13.630;2022-10-15T21:54:52;100397.53;;;15.27;100.00
13367;BME280;6752;52.612;13.630;2022-10-15T21:59:55;100411.68;;;15.27;100.00
13367;BME280;6752;52.612;13.630;2022-10-15T22:05:00;100414.58;;;15.29;100.00
13367;BME280;6752;52.612;13.630;2022-10-15T22:10:02;100431.47;;;15.29;100.00
13367;BME280;6752;52.612;13.630;2022-10-15T22:15:07;100433.05;;;15.23;100.00
13367;BME280;6752;52.612;13.630;2022-10-15T22:20:10;100423.75;;;15.26;100.00
13367;BME280;6752;52.612;13.630;2022-10-15T22:25:12;100446.92;;;15.13;100.00
13367;BME280;6752;52.612;13.630;2022-10-15T22:30:14;100441.75;;;15.14;100.00
13367;BME280;6752;52.612;13.630;2022-10-15T22:35:17;100429.69;;;15.15;100.00
13367;BME280;6752;52.612;13.630;2022-10-15T22:40:19;100432.24;;;15.14;100.00
13367;BME280;6752;52.612;13.630;2022-10-15T22:45:24;100419.97;;;15.19;100.00
13367;BME280;6752;52.612;13.630;2022-10-15T22:50:26;100424.92;;;15.19;100.00
13367;BME280;6752;52.612;13.630;2022-10-15T22:55:31;100435.30;;;15.15;100.00
13367;BME280;6752;52.612;13.630;2022-10-15T23:00:34;100439.76;;;15.21;100.00
13367;BME280;6752;52.612;13.630;2022-10-15T23:05:39;100436.48;;;14.99;100.00
13367;BME280;6752;52.612;13.630;2022-10-15T23:10:42;100444.25;;;14.94;100.00
13367;BME280;6752;52.612;13.630;2022-10-15T23:15:47;100453.47;;;14.88;100.00
13367;BME280;6752;52.612;13.630;2022-10-15T23:20:49;100454.97;;;14.96;100.00
13367;BME280;6752;52.612;13.630;2022-10-15T23:25:55;100459.23;;;14.97;100.00
13367;BME280;6752;52.612;13.630;2022-10-15T23:30:57;100462.63;;;14.85;100.00
13367;BME280;6752;52.612;13.630;2022-10-15T23:36:03;100468.56;;;14.96;100.00
13367;BME280;6752;52.612;13.630;2022-10-15T23:41:06;100466.59;;;14.92;100.00
13367;BME280;6752;52.612;13.630;2022-10-15T23:46:10;100470.73;;;14.94;100.00
13367;BME280;6752;52.612;13.630;2022-10-15T23:51:25;100468.05;;;14.99;100.00
13367;BME280;6752;52.612;13.630;2022-10-15T23:56:27;100477.86;;;15.15;100.00
